sensor_id;sensor_type;location;lat;lon;timestamp;pressure;altitude;pressure_sealevel;temperature;humidity
8501;BME280;4288;48.484;10.024;2023-01-29T00:01:15;96503.22;;;-0.83;100.00
8501;BME280;4288;48.484;10.024;2023-01-29T00:03:42;96501.03;;;-0.76;100.00
8501;BME280;4288;48.484;10.024;2023-01-29T00:06:11;96507.41;;;-0.82;100.00
8501;BME280;4288;48.484;10.024;2023-01-29T00:08:38;96521.03;;;-0.80;100.00
8501;BME280;4288;48.484;10.024;2023-01-29T00:11:07;96535.91;;;-0.76;100.00
8501;BME280;4288;48.484;10.024;2023-01-29T00:13:35;96544.09;;;-0.77;100.00
8501;BME280;4288;48.484;10.024;2023-01-29T00:16:02;96543.38;;;-0.83;100.00
8501;BME280;4288;48.484;10.024;2023-01-29T00:18:30;96544.28;;;-0.93;100.00
8501;BME280;4288;48.484;10.024;2023-01-29T00:20:57;96535.47;;;-1.02;100.00
8501;BME280;4288;48.484;10.024;2023-01-29T00:23:26;96524.19;;;-1.02;100.00
8501;BME280;4288;48.484;10.024;2023-01-29T00:25:53;96528.25;;;-0.91;100.00
8501;BME280;4288;48.484;10.024;2023-01-29T00:28:20;96531.31;;;-0.84;100.00
8501;BME280;4288;48.484;10.024;2023-01-29T00:30:47;96528.41;;;-0.82;100.00
8501;BME280;4288;48.484;10.024;2023-01-29T00:33:14;96531.16;;;-0.74;100.00
8501;BME280;4288;48.484;10.024;2023-01-29T00:35:41;96533.38;;;-0.81;100.00
8501;BME280;4288;48.484;10.024;2023-01-29T00:38:09;96531.03;;;-0.82;100.00
8501;BME280;4288;48.484;10.024;2023-01-29T00:40:40;96533.94;;;-0.84;100.00
8501;BME280;4288;48.484;10.024;2023-01-29T00:43:25;96538.19;;;-0.88;100.00
8501;BME280;4288;48.484;10.024;2023-01-29T00:46:10;96535.00;;;-0.85;100.00
8501;BME280;4288;48.484;10.024;2023-01-29T00:48:37;96526.06;;;-0.84;100.00
8501;BME280;4288;48.484;10.024;2023-01-29T00:51:04;96524.84;;;-0.92;100.00
8501;BME280;4288;48.484;10.024;2023-01-29T00:53:31;96520.59;;;-0.88;100.00
8501;BME280;4288;48.484;10.024;2023-01-29T00:56:00;96507.56;;;-0.93;100.00
8501;BME280;4288;48.484;10.024;2023-01-29T00:58:27;96508.84;;;-0.90;100.00
8501;BME280;4288;48.484;10.024;2023-01-29T01:01:00;96524.22;;;-0.83;100.00
8501;BME280;4288;48.484;10.024;2023-01-29T01:03:28;96518.72;;;-0.82;100.00
8501;BME280;4288;48.484;10.024;2023-01-29T01:06:04;96520.53;;;-0.82;100.00
8501;BME280;4288;48.484;10.024;2023-01-29T01:08:32;96526.84;;;-0.83;100.00
8501;BME280;4288;48.484;10.024;2023-01-29T01:11:18;96515.34;;;-0.88;100.00
8501;BME280;4288;48.484;10.024;2023-01-29T01:13:45;96520.88;;;-0.89;100.00
8501;BME280;4288;48.484;10.024;2023-01-29T01:16:16;96519.59;;;-0.92;100.00
8501;BME280;4288;48.484;10.024;2023-01-29T01:18:45;96512.88;;;-0.98;100.00
8501;BME280;4288;48.484;10.024;2023-01-29T01:21:12;96519.03;;;-0.88;100.00
8501;BME280;4288;48.484;10.024;2023-01-29T01:23:39;96516.75;;;-0.95;100.00
8501;BME280;4288;48.484;10.024;2023-01-29T01:26:09;96514.34;;;-0.92;100.00
8501;BME280;4288;48.484;10.024;2023-01-29T01:28:38;96514.78;;;-0.84;100.00
8501;BME280;4288;48.484;10.024;2023-01-29T01:31:09;96518.25;;;-0.89;100.00
8501;BME280;4288;48.484;10.024;2023-01-29T01:33:37;96504.13;;;-0.93;100.00
8501;BME280;4288;48.484;10.024;2023-01-29T01:36:06;96502.00;;;-0.91;100.00
8501;BME280;4288;48.484;10.024;2023-01-29T01:38:36;96504.09;;;-0.88;100.00
8501;BME280;4288;48.484;10.024;2023-01-29T01:41:09;96503.22;;;-0.83;100.00
8501;BME280;4288;48.484;10.024;2023-01-29T01:43:50;96502.19;;;-0.82;100.00
8501;BME280;4288;48.484;10.024;2023-01-29T01:46:18;96504.00;;;-0.83;100.00
8501;BME280;4288;48.484;10.024;2023-01-29T01:48:49;96507.25;;;-0.91;100.00
8501;BME280;4288;48.484;10.024;2023-01-29T01:51:19;96502.72;;;-0.85;100.00
8501;BME280;4288;48.484;10.024;2023-01-29T01:53:53;96509.38;;;-0.93;100.00
8501;BME280;4288;48.484;10.024;2023-01-29T01:56:26;96491.31;;;-0.95;100.00
8501;BME280;4288;48.484;10.024;2023-01-29T01:59:07;96493.72;;;-0.98;100.00
8501;BME280;4288;48.484;10.024;2023-01-29T02:01:35;96494.22;;;-0.96;100.00
8501;BME280;4288;48.484;10.024;2023-01-29T02:04:11;96498.88;;;-0.93;100.00
8501;BME280;4288;48.484;10.024;2023-01-29T02:06:58;96495.72;;;-0.90;100.00
8501;BME280;4288;48.484;10.024;2023-01-29T02:09:51;96497.69;;;-1.01;100.00
8501;BME280;4288;48.484;10.024;2023-01-29T02:12:20;96494.78;;;-0.99;100.00
8501;BME280;4288;48.484;10.024;2023-01-29T02:14:51;96495.91;;;-1.05;100.00
8501;BME280;4288;48.484;10.024;2023-01-29T02:17:19;96487.31;;;-1.11;100.00
8501;BME280;4288;48.484;10.024;2023-01-29T02:19:54;96490.22;;;-1.12;100.00
8501;BME280;4288;48.484;10.024;2023-01-29T02:22:59;96494.63;;;-1.08;100.00
8501;BME280;4288;48.484;10.024;2023-01-29T02:26:03;96489.50;;;-1.18;100.00
8501;BME280;4288;48.484;10.024;2023-01-29T02:28:40;96499.09;;;-1.08;100.00
8501;BME280;4288;48.484;10.024;2023-01-29T02:31:20;96509.28;;;-1.07;100.00
8501;BME280;4288;48.484;10.024;2023-01-29T02:33:58;96498.81;;;-1.07;100.00
8501;BME280;4288;48.484;10.024;2023-01-29T02:36:37;96499.81;;;-1.03;100.00
8501;BME280;4288;48.484;10.024;2023-01-29T02:39:14;96502.22;;;-1.06;100.00
8501;BME280;4288;48.484;10.024;2023-01-29T02:41:50;96504.63;;;-1.10;100.00
8501;BME280;4288;48.484;10.024;2023-01-29T02:44:28;96499.72;;;-1.16;100.00
8501;BME280;4288;48.484;10.024;2023-01-29T02:47:02;96501.44;;;-1.07;100.00
8501;BME280;4288;48.484;10.024;2023-01-29T02:49:34;96504.84;;;-1.06;100.00
8501;BME280;4288;48.484;10.024;2023-01-29T02:52:08;96500.22;;;-1.14;100.00
8501;BME280;4288;48.484;10.024;2023-01-29T02:54:44;96508.59;;;-1.12;100.00
8501;BME280;4288;48.484;10.024;2023-01-29T02:57:18;96499.16;;;-1.13;100.00
8501;BME280;4288;48.484;10.024;2023-01-29T02:59:54;96497.38;;;-1.18;100.00
8501;BME280;4288;48.484;10.024;2023-01-29T03:02:28;96509.66;;;-1.13;100.00
8501;BME280;4288;48.484;10.024;2023-01-29T03:05:02;96508.59;;;-1.12;100.00
8501;BME280;4288;48.484;10.024;2023-01-29T03:07:34;96502.34;;;-1.16;100.00
8501;BME280;4288;48.484;10.024;2023-01-29T03:10:16;96510.41;;;-1.13;100.00
8501;BME280;4288;48.484;10.024;2023-01-29T03:12:50;96512.91;;;-1.21;100.00
8501;BME280;4288;48.484;10.024;2023-01-29T03:15:26;96513.03;;;-1.13;100.00
8501;BME280;4288;48.484;10.024;2023-01-29T03:17:58;96520.91;;;-1.13;100.00
8501;BME280;4288;48.484;10.024;2023-01-29T03:20:33;96520.69;;;-1.16;100.00
8501;BME280;4288;48.484;10.024;2023-01-29T03:23:06;96508.41;;;-1.21;100.00
8501;BME280;4288;48.484;10.024;2023-01-29T03:25:35;96512.41;;;-1.05;100.00
8501;BME280;4288;48.484;10.024;2023-01-29T03:28:22;96514.25;;;-1.05;100.00
8501;BME280;4288;48.484;10.024;2023-01-29T03:31:11;96508.78;;;-1.09;100.00
8501;BME280;4288;48.484;10.024;2023-01-29T03:34:00;96507.03;;;-1.13;100.00
8501;BME280;4288;48.484;10.024;2023-01-29T03:36:36;96506.78;;;-1.17;100.00
8501;BME280;4288;48.484;10.024;2023-01-29T03:39:04;96508.59;;;-1.12;100.00
8501;BME280;4288;48.484;10.024;2023-01-29T03:41:35;96505.97;;;-1.12;100.00
8501;BME280;4288;48.484;10.024;2023-01-29T03:44:13;96509.38;;;-1.12;100.00
8501;BME280;4288;48.484;10.024;2023-01-29T03:46:49;96503.63;;;-1.14;100.00
8501;BME280;4288;48.484;10.024;2023-01-29T03:49:25;96506.53;;;-1.15;100.00
8501;BME280;4288;48.484;10.024;2023-01-29T03:52:01;96503.91;;;-1.15;100.00
8501;BME280;4288;48.484;10.024;2023-01-29T03:54:39;96499.53;;;-1.25;100.00
8501;BME280;4288;48.484;10.024;2023-01-29T03:57:17;96507.56;;;-1.16;100.00
8501;BME280;4288;48.484;10.024;2023-01-29T03:59:53;96502.16;;;-1.25;100.00
8501;BME280;4288;48.484;10.024;2023-01-29T04:02:30;96508.31;;;-1.34;100.00
8501;BME280;4288;48.484;10.024;2023-01-29T04:05:06;96510.59;;;-1.28;100.00
8501;BME280;4288;48.484;10.024;2023-01-29T04:07:39;96508.28;;;-1.29;100.00
8501;BME280;4288;48.484;10.024;2023-01-29T04:10:11;96511.19;;;-1.31;100.00
8501;BME280;4288;48.484;10.024;2023-01-29T04:12:46;96502.16;;;-1.25;100.00
8501;BME280;4288;48.484;10.024;2023-01-29T04:15:16;96506.97;;;-1.32;100.00
8501;BME280;4288;48.484;10.024;2023-01-29T04:17:49;96511.22;;;-1.36;100.00
8501;BME280;4288;48.484;10.024;2023-01-29T04:20:17;96502.06;;;-1.38;100.00
8501;BME280;4288;48.484;10.024;2023-01-29T04:22:48;96506.16;;;-1.27;100.00
8501;BME280;4288;48.484;10.024;2023-01-29T04:25:18;96506.19;;;-1.32;100.00
8501;BME280;4288;48.484;10.024;2023-01-29T04:28:00;96509.81;;;-1.28;100.00
8501;BME280;4288;48.484;10.024;2023-01-29T04:30:42;96507.69;;;-1.26;100.00
8501;BME280;4288;48.484;10.024;2023-01-29T04:33:27;96497.06;;;-1.35;100.00
8501;BME280;4288;48.484;10.024;2023-01-29T04:36:12;96509.88;;;-1.33;100.00
8501;BME280;4288;48.484;10.024;2023-01-29T04:38:53;96513.56;;;-1.34;100.00
8501;BME280;4288;48.484;10.024;2023-01-29T04:41:29;96513.50;;;-1.29;100.00
8501;BME280;4288;48.484;10.024;2023-01-29T04:44:04;96513.44;;;-1.24;100.00
8501;BME280;4288;48.484;10.024;2023-01-29T04:46:42;96521.03;;;-1.23;100.00
8501;BME280;4288;48.484;10.024;2023-01-29T04:49:21;96523.53;;;-1.36;100.00
8501;BME280;4288;48.484;10.024;2023-01-29T04:51:57;96520.97;;;-1.41;100.00
8501;BME280;4288;48.484;10.024;2023-01-29T04:54:40;96511.09;;;-1.49;100.00
8501;BME280;4288;48.484;10.024;2023-01-29T04:57:17;96512.44;;;-1.52;100.00
8501;BME280;4288;48.484;10.024;2023-01-29T04:59:55;96513.66;;;-1.44;100.00
8501;BME280;4288;48.484;10.024;2023-01-29T05:02:24;96521.19;;;-1.38;100.00
8501;BME280;4288;48.484;10.024;2023-01-29T05:04:54;96518.78;;;-1.34;100.00
8501;BME280;4288;48.484;10.024;2023-01-29T05:07:25;96520.66;;;-1.35;100.00
8501;BME280;4288;48.484;10.024;2023-01-29T05:09:55;96520.38;;;-1.33;100.00
8501;BME280;4288;48.484;10.024;2023-01-29T05:12:24;96525.94;;;-1.40;100.00
8501;BME280;4288;48.484;10.024;2023-01-29T05:14:53;96514.81;;;-1.50;100.00
8501;BME280;4288;48.484;10.024;2023-01-29T05:17:22;96513.22;;;-1.51;100.00
8501;BME280;4288;48.484;10.024;2023-01-29T05:19:50;96520.25;;;-1.47;100.00
8501;BME280;4288;48.484;10.024;2023-01-29T05:22:19;96517.28;;;-1.40;100.00
8501;BME280;4288;48.484;10.024;2023-01-29T05:24:48;96513.41;;;-1.43;100.00
8501;BME280;4288;48.484;10.024;2023-01-29T05:27:19;96511.00;;;-1.39;100.00
8501;BME280;4288;48.484;10.024;2023-01-29T05:30:06;96510.28;;;-1.45;100.00
8501;BME280;4288;48.484;10.024;2023-01-29T05:32:33;96511.22;;;-1.36;100.00
8501;BME280;4288;48.484;10.024;2023-01-29T05:35:00;96514.34;;;-1.34;100.00
8501;BME280;4288;48.484;10.024;2023-01-29T05:37:28;96518.25;;;-1.31;100.00
8501;BME280;4288;48.484;10.024;2023-01-29T05:39:55;96504.19;;;-1.40;100.00
8501;BME280;4288;48.484;10.024;2023-01-29T05:42:23;96507.56;;;-1.35;100.00
8501;BME280;4288;48.484;10.024;2023-01-29T05:44:50;96508.88;;;-1.37;100.00
8501;BME280;4288;48.484;10.024;2023-01-29T05:47:18;96510.72;;;-1.38;100.00
8501;BME280;4288;48.484;10.024;2023-01-29T05:49:45;96511.78;;;-1.39;100.00
8501;BME280;4288;48.484;10.024;2023-01-29T05:52:12;96518.88;;;-1.39;100.00
8501;BME280;4288;48.484;10.024;2023-01-29T05:54:41;96514.63;;;-1.35;100.00
8501;BME280;4288;48.484;10.024;2023-01-29T05:57:08;96523.03;;;-1.38;100.00
8501;BME280;4288;48.484;10.024;2023-01-29T05:59:35;96522.81;;;-1.42;100.00
8501;BME280;4288;48.484;10.024;2023-01-29T06:02:02;96520.25;;;-1.47;100.00
8501;BME280;4288;48.484;10.024;2023-01-29T06:04:29;96523.38;;;-1.45;100.00
8501;BME280;4288;48.484;10.024;2023-01-29T06:06:57;96521.25;;;-1.43;100.00
8501;BME280;4288;48.484;10.024;2023-01-29T06:09:24;96516.03;;;-1.43;100.00
8501;BME280;4288;48.484;10.024;2023-01-29T06:11:53;96509.19;;;-1.44;100.00
8501;BME280;4288;48.484;10.024;2023-01-29T06:14:20;96503.75;;;-1.47;100.00
8501;BME280;4288;48.484;10.024;2023-01-29T06:16:47;96507.69;;;-1.50;100.00
8501;BME280;4288;48.484;10.024;2023-01-29T06:19:14;96507.97;;;-1.51;100.00
8501;BME280;4288;48.484;10.024;2023-01-29T06:21:42;96506.66;;;-1.49;100.00
8501;BME280;4288;48.484;10.024;2023-01-29T06:24:10;96503.41;;;-1.41;100.00
8501;BME280;4288;48.484;10.024;2023-01-29T06:26:37;96497.38;;;-1.41;100.00
8501;BME280;4288;48.484;10.024;2023-01-29T06:29:05;96485.09;;;-1.46;100.00
8501;BME280;4288;48.484;10.024;2023-01-29T06:31:32;96488.84;;;-1.52;100.00
8501;BME280;4288;48.484;10.024;2023-01-29T06:33:59;96480.97;;;-1.52;100.00
8501;BME280;4288;48.484;10.024;2023-01-29T06:36:26;96485.97;;;-1.50;100.00
8501;BME280;4288;48.484;10.024;2023-01-29T06:38:53;96480.22;;;-1.52;100.00
8501;BME280;4288;48.484;10.024;2023-01-29T06:41:20;96485.47;;;-1.52;100.00
8501;BME280;4288;48.484;10.024;2023-01-29T06:43:50;96485.00;;;-1.36;100.00
8501;BME280;4288;48.484;10.024;2023-01-29T06:46:18;96498.72;;;-1.44;100.00
8501;BME280;4288;48.484;10.024;2023-01-29T06:48:45;96488.81;;;-1.47;100.00
8501;BME280;4288;48.484;10.024;2023-01-29T06:51:12;96486.56;;;-1.35;100.00
8501;BME280;4288;48.484;10.024;2023-01-29T06:53:40;96495.47;;;-1.36;100.00
8501;BME280;4288;48.484;10.024;2023-01-29T06:56:07;96493.59;;;-1.30;100.00
8501;BME280;4288;48.484;10.024;2023-01-29T06:58:36;96502.53;;;-1.31;99.47
8501;BME280;4288;48.484;10.024;2023-01-29T07:01:05;96504.97;;;-1.40;99.29
8501;BME280;4288;48.484;10.024;2023-01-29T07:03:34;96499.91;;;-1.31;100.00
8501;BME280;4288;48.484;10.024;2023-01-29T07:06:01;96503.56;;;-1.32;100.00
8501;BME280;4288;48.484;10.024;2023-01-29T07:08:29;96513.00;;;-1.31;100.00
8501;BME280;4288;48.484;10.024;2023-01-29T07:10:59;96511.72;;;-1.34;100.00
8501;BME280;4288;48.484;10.024;2023-01-29T07:13:27;96508.81;;;-1.32;100.00
8501;BME280;4288;48.484;10.024;2023-01-29T07:15:57;96519.88;;;-1.35;100.00
8501;BME280;4288;48.484;10.024;2023-01-29T07:18:25;96519.38;;;-1.37;100.00
8501;BME280;4288;48.484;10.024;2023-01-29T07:20:54;96526.16;;;-1.36;100.00
8501;BME280;4288;48.484;10.024;2023-01-29T07:23:21;96514.13;;;-1.37;99.24
8501;BME280;4288;48.484;10.024;2023-01-29T07:25:49;96516.13;;;-1.29;99.71
8501;BME280;4288;48.484;10.024;2023-01-29T07:28:17;96503.41;;;-1.17;99.34
8501;BME280;4288;48.484;10.024;2023-01-29T07:30:45;96498.81;;;-1.30;98.38
8501;BME280;4288;48.484;10.024;2023-01-29T07:33:12;96511.94;;;-1.30;98.32
8501;BME280;4288;48.484;10.024;2023-01-29T07:35:41;96515.28;;;-1.25;99.79
8501;BME280;4288;48.484;10.024;2023-01-29T07:38:10;96516.69;;;-1.32;99.85
8501;BME280;4288;48.484;10.024;2023-01-29T07:40:37;96525.50;;;-1.23;100.00
8501;BME280;4288;48.484;10.024;2023-01-29T07:43:06;96524.44;;;-1.22;100.00
8501;BME280;4288;48.484;10.024;2023-01-29T07:45:35;96525.25;;;-1.27;100.00
8501;BME280;4288;48.484;10.024;2023-01-29T07:48:02;96538.63;;;-1.23;100.00
8501;BME280;4288;48.484;10.024;2023-01-29T07:50:32;96529.38;;;-1.21;100.00
8501;BME280;4288;48.484;10.024;2023-01-29T07:52:59;96536.94;;;-1.14;99.86
8501;BME280;4288;48.484;10.024;2023-01-29T07:55:28;96533.25;;;-1.13;99.48
8501;BME280;4288;48.484;10.024;2023-01-29T07:57:56;96531.06;;;-1.06;99.87
8501;BME280;4288;48.484;10.024;2023-01-29T08:00:23;96534.97;;;-1.04;100.00
8501;BME280;4288;48.484;10.024;2023-01-29T08:02:51;96541.84;;;-1.08;99.21
8501;BME280;4288;48.484;10.024;2023-01-29T08:05:18;96548.94;;;-1.08;98.83
8501;BME280;4288;48.484;10.024;2023-01-29T08:07:49;96544.22;;;-1.11;98.54
8501;BME280;4288;48.484;10.024;2023-01-29T08:10:18;96541.34;;;-1.10;98.40
8501;BME280;4288;48.484;10.024;2023-01-29T08:12:46;96545.81;;;-1.10;98.77
8501;BME280;4288;48.484;10.024;2023-01-29T08:15:14;96548.25;;;-0.95;99.90
8501;BME280;4288;48.484;10.024;2023-01-29T08:17:41;96555.72;;;-1.07;98.27
8501;BME280;4288;48.484;10.024;2023-01-29T08:20:10;96555.00;;;-1.13;97.99
8501;BME280;4288;48.484;10.024;2023-01-29T08:22:37;96550.47;;;-1.07;97.08
8501;BME280;4288;48.484;10.024;2023-01-29T08:25:05;96551.72;;;-1.00;96.80
8501;BME280;4288;48.484;10.024;2023-01-29T08:27:32;96550.94;;;-1.00;96.40
8501;BME280;4288;48.484;10.024;2023-01-29T08:30:00;96549.25;;;-0.91;96.98
8501;BME280;4288;48.484;10.024;2023-01-29T08:32:27;96554.69;;;-0.88;98.51
8501;BME280;4288;48.484;10.024;2023-01-29T08:34:54;96553.88;;;-0.83;98.76
8501;BME280;4288;48.484;10.024;2023-01-29T08:37:21;96556.69;;;-0.79;99.27
8501;BME280;4288;48.484;10.024;2023-01-29T08:39:48;96554.56;;;-0.96;98.65
8501;BME280;4288;48.484;10.024;2023-01-29T08:42:16;96555.09;;;-0.99;98.44
8501;BME280;4288;48.484;10.024;2023-01-29T08:44:43;96559.09;;;-0.83;99.32
8501;BME280;4288;48.484;10.024;2023-01-29T08:47:11;96564.25;;;-0.73;98.79
8501;BME280;4288;48.484;10.024;2023-01-29T08:49:38;96559.50;;;-0.71;97.70
8501;BME280;4288;48.484;10.024;2023-01-29T08:52:05;96549.69;;;-0.84;97.37
8501;BME280;4288;48.484;10.024;2023-01-29T08:54:32;96552.31;;;-0.84;97.62
8501;BME280;4288;48.484;10.024;2023-01-29T08:56:59;96551.81;;;-0.86;96.96
8501;BME280;4288;48.484;10.024;2023-01-29T08:59:26;96556.81;;;-0.90;96.58
8501;BME280;4288;48.484;10.024;2023-01-29T09:01:53;96560.72;;;-0.87;96.66
8501;BME280;4288;48.484;10.024;2023-01-29T09:04:22;96564.53;;;-0.74;97.34
8501;BME280;4288;48.484;10.024;2023-01-29T09:06:49;96561.16;;;-0.80;97.30
8501;BME280;4288;48.484;10.024;2023-01-29T09:09:16;96562.41;;;-0.72;97.81
8501;BME280;4288;48.484;10.024;2023-01-29T09:11:44;96565.69;;;-0.85;97.10
8501;BME280;4288;48.484;10.024;2023-01-29T09:14:11;96567.56;;;-0.86;97.19
8501;BME280;4288;48.484;10.024;2023-01-29T09:16:39;96575.28;;;-0.76;97.07
8501;BME280;4288;48.484;10.024;2023-01-29T09:19:06;96576.38;;;-0.58;97.09
8501;BME280;4288;48.484;10.024;2023-01-29T09:21:35;96576.75;;;-0.65;97.05
8501;BME280;4288;48.484;10.024;2023-01-29T09:24:03;96586.53;;;-0.70;96.33
8501;BME280;4288;48.484;10.024;2023-01-29T09:26:30;96583.16;;;-0.76;94.56
8501;BME280;4288;48.484;10.024;2023-01-29T09:28:57;96584.59;;;-0.65;94.46
8501;BME280;4288;48.484;10.024;2023-01-29T09:31:24;96585.81;;;-0.57;95.04
8501;BME280;4288;48.484;10.024;2023-01-29T09:33:51;96588.09;;;-0.51;96.67
8501;BME280;4288;48.484;10.024;2023-01-29T09:36:18;96594.00;;;-0.59;95.78
8501;BME280;4288;48.484;10.024;2023-01-29T09:38:46;96592.13;;;-0.58;95.96
8501;BME280;4288;48.484;10.024;2023-01-29T09:41:26;96602.22;;;-0.28;96.26
8501;BME280;4288;48.484;10.024;2023-01-29T09:43:58;96599.34;;;-0.69;96.45
8501;BME280;4288;48.484;10.024;2023-01-29T09:46:34;96606.97;;;-0.49;96.70
8501;BME280;4288;48.484;10.024;2023-01-29T09:49:09;96607.16;;;-0.64;96.54
8501;BME280;4288;48.484;10.024;2023-01-29T09:51:42;96604.94;;;-0.75;96.39
8501;BME280;4288;48.484;10.024;2023-01-29T09:54:20;96593.09;;;-0.73;96.59
8501;BME280;4288;48.484;10.024;2023-01-29T09:56:52;96599.44;;;-0.55;96.38
8501;BME280;4288;48.484;10.024;2023-01-29T09:59:23;96598.44;;;-0.59;96.32
8501;BME280;4288;48.484;10.024;2023-01-29T10:01:59;96593.75;;;-0.62;95.83
8501;BME280;4288;48.484;10.024;2023-01-29T10:04:56;96574.03;;;-0.60;95.89
8501;BME280;4288;48.484;10.024;2023-01-29T10:08:10;96574.56;;;-0.39;95.35
8501;BME280;4288;48.484;10.024;2023-01-29T10:10:48;96578.50;;;-0.60;93.99
8501;BME280;4288;48.484;10.024;2023-01-29T10:13:26;96569.56;;;-0.41;93.18
8501;BME280;4288;48.484;10.024;2023-01-29T10:19:33;96568.09;;;-0.28;94.64
8501;BME280;4288;48.484;10.024;2023-01-29T10:22:29;96576.19;;;-0.06;93.54
8501;BME280;4288;48.484;10.024;2023-01-29T10:25:03;96564.69;;;-0.10;92.54
8501;BME280;4288;48.484;10.024;2023-01-29T10:27:35;96560.41;;;-0.25;90.16
8501;BME280;4288;48.484;10.024;2023-01-29T10:30:17;96558.56;;;-0.24;92.51
8501;BME280;4288;48.484;10.024;2023-01-29T10:32:48;96546.16;;;-0.19;92.23
8501;BME280;4288;48.484;10.024;2023-01-29T10:35:22;96543.22;;;0.02;91.74
8501;BME280;4288;48.484;10.024;2023-01-29T10:37:52;96542.31;;;0.25;92.13
8501;BME280;4288;48.484;10.024;2023-01-29T10:40:22;96545.25;;;0.05;91.36
8501;BME280;4288;48.484;10.024;2023-01-29T10:42:57;96538.16;;;0.05;90.64
8501;BME280;4288;48.484;10.024;2023-01-29T10:45:33;96538.41;;;-0.29;90.27
8501;BME280;4288;48.484;10.024;2023-01-29T10:48:34;96534.94;;;-0.24;90.00
8501;BME280;4288;48.484;10.024;2023-01-29T10:51:18;96535.56;;;-0.14;90.00
8501;BME280;4288;48.484;10.024;2023-01-29T10:54:04;96534.28;;;0.16;91.36
8501;BME280;4288;48.484;10.024;2023-01-29T10:56:53;96537.00;;;0.11;91.70
8501;BME280;4288;48.484;10.024;2023-01-29T10:59:43;96532.44;;;0.17;91.16
8501;BME280;4288;48.484;10.024;2023-01-29T11:02:18;96534.34;;;-0.03;90.36
8501;BME280;4288;48.484;10.024;2023-01-29T11:04:46;96529.84;;;-0.34;89.66
8501;BME280;4288;48.484;10.024;2023-01-29T11:07:15;96531.16;;;0.14;92.82
8501;BME280;4288;48.484;10.024;2023-01-29T11:09:49;96530.25;;;0.37;91.46
8501;BME280;4288;48.484;10.024;2023-01-29T11:12:19;96523.03;;;0.29;88.94
8501;BME280;4288;48.484;10.024;2023-01-29T11:14:55;96529.25;;;-0.13;89.13
8501;BME280;4288;48.484;10.024;2023-01-29T11:17:26;96534.41;;;-0.08;90.85
8501;BME280;4288;48.484;10.024;2023-01-29T11:19:54;96542.97;;;0.17;88.75
8501;BME280;4288;48.484;10.024;2023-01-29T11:22:23;96539.16;;;-0.10;88.61
8501;BME280;4288;48.484;10.024;2023-01-29T11:25:07;96528.53;;;0.14;90.58
8501;BME280;4288;48.484;10.024;2023-01-29T11:27:42;96529.47;;;0.23;91.06
8501;BME280;4288;48.484;10.024;2023-01-29T11:30:20;96511.28;;;0.40;91.23
8501;BME280;4288;48.484;10.024;2023-01-29T11:32:53;96509.31;;;0.32;89.15
8501;BME280;4288;48.484;10.024;2023-01-29T11:35:24;96505.03;;;0.36;89.20
8501;BME280;4288;48.484;10.024;2023-01-29T11:37:51;96508.06;;;0.43;89.25
8501;BME280;4288;48.484;10.024;2023-01-29T11:40:39;96496.84;;;0.38;88.18
8501;BME280;4288;48.484;10.024;2023-01-29T11:43:19;96504.56;;;0.61;86.96
8501;BME280;4288;48.484;10.024;2023-01-29T11:45:50;96510.59;;;0.35;88.05
8501;BME280;4288;48.484;10.024;2023-01-29T11:48:21;96515.34;;;0.33;87.56
8501;BME280;4288;48.484;10.024;2023-01-29T11:50:54;96516.03;;;0.38;87.89
8501;BME280;4288;48.484;10.024;2023-01-29T11:53:38;96514.28;;;0.34;87.67
8501;BME280;4288;48.484;10.024;2023-01-29T11:56:18;96502.78;;;0.30;87.05
8501;BME280;4288;48.484;10.024;2023-01-29T11:58:47;96491.28;;;0.26;85.70
8501;BME280;4288;48.484;10.024;2023-01-29T12:01:21;96494.22;;;0.38;86.41
8501;BME280;4288;48.484;10.024;2023-01-29T12:03:53;96480.88;;;0.21;86.51
8501;BME280;4288;48.484;10.024;2023-01-29T12:06:23;96483.31;;;0.31;86.50
8501;BME280;4288;48.484;10.024;2023-01-29T12:08:56;96480.28;;;0.24;87.25
8501;BME280;4288;48.484;10.024;2023-01-29T12:11:27;96467.69;;;-0.07;88.26
8501;BME280;4288;48.484;10.024;2023-01-29T12:13:56;96468.53;;;0.35;89.48
8501;BME280;4288;48.484;10.024;2023-01-29T12:16:29;96456.34;;;0.25;87.63
8501;BME280;4288;48.484;10.024;2023-01-29T12:19:08;96460.84;;;0.65;87.88
8501;BME280;4288;48.484;10.024;2023-01-29T12:21:44;96448.78;;;0.64;86.10
8501;BME280;4288;48.484;10.024;2023-01-29T12:24:30;96455.56;;;0.52;87.40
8501;BME280;4288;48.484;10.024;2023-01-29T12:27:06;96453.13;;;0.55;86.79
8501;BME280;4288;48.484;10.024;2023-01-29T12:29:45;96444.19;;;0.43;86.98
8501;BME280;4288;48.484;10.024;2023-01-29T12:32:28;96435.59;;;0.51;86.97
8501;BME280;4288;48.484;10.024;2023-01-29T12:35:02;96431.03;;;0.70;87.96
8501;BME280;4288;48.484;10.024;2023-01-29T12:37:39;96422.00;;;0.98;88.33
8501;BME280;4288;48.484;10.024;2023-01-29T12:40:12;96418.25;;;0.77;86.15
8501;BME280;4288;48.484;10.024;2023-01-29T12:42:43;96417.84;;;0.83;86.87
8501;BME280;4288;48.484;10.024;2023-01-29T12:45:17;96424.75;;;0.93;87.79
8501;BME280;4288;48.484;10.024;2023-01-29T12:47:49;96400.31;;;0.79;87.76
8501;BME280;4288;48.484;10.024;2023-01-29T12:50:20;96413.19;;;0.53;87.95
8501;BME280;4288;48.484;10.024;2023-01-29T12:52:52;96412.53;;;0.48;87.54
8501;BME280;4288;48.484;10.024;2023-01-29T12:55:23;96413.19;;;0.67;88.26
8501;BME280;4288;48.484;10.024;2023-01-29T12:57:56;96422.22;;;0.74;89.01
8501;BME280;4288;48.484;10.024;2023-01-29T13:00:27;96428.69;;;0.55;89.36
8501;BME280;4288;48.484;10.024;2023-01-29T13:03:02;96413.88;;;0.59;88.43
8501;BME280;4288;48.484;10.024;2023-01-29T13:05:37;96399.75;;;0.55;89.20
8501;BME280;4288;48.484;10.024;2023-01-29T13:08:09;96397.34;;;0.58;89.34
8501;BME280;4288;48.484;10.024;2023-01-29T13:10:43;96393.03;;;0.49;89.78
8501;BME280;4288;48.484;10.024;2023-01-29T13:13:18;96383.69;;;0.70;90.31
8501;BME280;4288;48.484;10.024;2023-01-29T13:15:47;96373.69;;;0.45;88.16
8501;BME280;4288;48.484;10.024;2023-01-29T13:18:32;96367.34;;;0.46;88.87
8501;BME280;4288;48.484;10.024;2023-01-29T13:21:04;96366.28;;;0.60;88.34
8501;BME280;4288;48.484;10.024;2023-01-29T13:23:35;96365.09;;;0.53;90.25
8501;BME280;4288;48.484;10.024;2023-01-29T13:26:04;96357.97;;;0.53;88.64
8501;BME280;4288;48.484;10.024;2023-01-29T13:28:32;96358.38;;;0.60;88.64
8501;BME280;4288;48.484;10.024;2023-01-29T13:31:12;96345.47;;;0.37;89.42
8501;BME280;4288;48.484;10.024;2023-01-29T13:33:42;96355.66;;;0.38;89.04
8501;BME280;4288;48.484;10.024;2023-01-29T13:36:24;96357.00;;;0.49;91.63
8501;BME280;4288;48.484;10.024;2023-01-29T13:38:59;96358.31;;;0.25;89.56